Terminal Aerodrome Forecast
Issued by NWS

Home | Current Version | Previous Version | Graphics & Text | Print | Product List | Glossary On
Versions: 1 2 3 4 5 6 7 8 9 10 11 12 13 14 15 16 17 18
000
FTUS43 KICT 152349
TAFSLN
TAF
KSLN 152349Z 1600/1624 07006KT 5SM -FZDZ BR OVC005
     FM160400 05006KT 4SM -FZRA BR OVC004
      TEMPO 1604/1608 2SM FZRA BR OVC003
     FM161800 35011KT 3SM -RA BR OVC003
     FM162100 33012KT P6SM OVC003=

USA.gov is the U.S. government's official web portal to all federal, state and local government web resources and services.